createdAt,value
2023-03-06T00:00:21.557Z,57.59
2023-03-06T00:02:51.375Z,57.63
2023-03-06T00:05:20.747Z,57.66
2023-03-06T00:07:49.188Z,57.55
2023-03-06T00:10:20.046Z,57.56
2023-03-06T00:12:48.703Z,57.66
2023-03-06T00:15:17.043Z,57.80
2023-03-06T00:17:46.730Z,57.96
2023-03-06T00:20:16.115Z,58.00
2023-03-06T00:22:44.797Z,57.90
2023-03-06T00:25:15.022Z,57.88
2023-03-06T00:27:44.175Z,57.91
2023-03-06T00:30:14.187Z,58.05
2023-03-06T00:32:43.705Z,58.11
2023-03-06T00:35:14.440Z,57.77
2023-03-06T00:37:45.741Z,57.41
2023-03-06T00:40:16.756Z,57.35
2023-03-06T00:42:45.489Z,57.19
2023-03-06T00:45:14.450Z,56.93
2023-03-06T00:47:43.060Z,56.92
2023-03-06T00:50:13.681Z,56.80
2023-03-06T00:52:42.473Z,56.64
2023-03-06T00:55:11.844Z,56.48
2023-03-06T00:57:40.129Z,56.57
2023-03-06T01:00:10.275Z,56.59
2023-03-06T01:02:38.598Z,56.52
2023-03-06T01:05:07.951Z,56.29
2023-03-06T01:07:37.648Z,56.16
2023-03-06T01:10:08.012Z,56.16
2023-03-06T01:12:36.399Z,56.08
2023-03-06T01:15:05.466Z,56.01
2023-03-06T01:17:33.828Z,55.93
2023-03-06T01:20:02.255Z,55.87
2023-03-06T01:22:30.551Z,55.90
2023-03-06T01:25:00.191Z,55.83
2023-03-06T01:27:28.562Z,55.82
2023-03-06T01:29:56.946Z,55.89
2023-03-06T01:32:25.295Z,55.91
2023-03-06T01:34:53.826Z,55.68
2023-03-06T01:37:22.179Z,55.81
2023-03-06T01:39:50.746Z,55.93
2023-03-06T01:42:20.453Z,55.99
2023-03-06T01:45:00.792Z,55.59
2023-03-06T01:47:29.114Z,56.04
2023-03-06T01:49:58.567Z,56.10
2023-03-06T01:52:30.336Z,56.08
2023-03-06T01:55:02.755Z,56.14
2023-03-06T01:57:35.014Z,55.98
2023-03-06T02:00:08.374Z,56.06
2023-03-06T02:02:48.653Z,56.10
2023-03-06T02:05:17.265Z,56.13
2023-03-06T02:07:48.095Z,56.07
2023-03-06T02:10:17.516Z,56.47
2023-03-06T02:12:49.430Z,56.36
2023-03-06T02:15:20.215Z,56.32
2023-03-06T02:17:49.835Z,56.31
2023-03-06T02:20:24.989Z,56.27
2023-03-06T02:23:01.347Z,56.23
2023-03-06T02:25:42.595Z,55.97
2023-03-06T02:28:13.572Z,56.17
2023-03-06T02:30:43.465Z,56.26
2023-03-06T02:33:15.429Z,56.39
2023-03-06T02:35:47.821Z,56.43
2023-03-06T02:38:18.746Z,56.61
2023-03-06T02:40:52.239Z,56.46
2023-03-06T02:43:25.404Z,56.45
2023-03-06T02:45:54.248Z,56.61
2023-03-06T02:48:22.793Z,56.62
2023-03-06T02:50:51.138Z,56.72
2023-03-06T02:53:21.281Z,56.68
2023-03-06T02:55:51.453Z,56.72
2023-03-06T02:58:20.647Z,56.76
2023-03-06T03:00:50.161Z,56.81
2023-03-06T03:03:19.890Z,56.83
2023-03-06T03:05:48.278Z,56.81
2023-03-06T03:08:23.657Z,56.72
2023-03-06T03:11:02.051Z,56.51
2023-03-06T03:13:37.684Z,56.64
2023-03-06T03:16:09.821Z,56.66
2023-03-06T03:18:38.247Z,56.71
2023-03-06T03:21:09.388Z,56.64
2023-03-06T03:23:37.692Z,56.82
2023-03-06T03:26:12.938Z,56.63
2023-03-06T03:28:44.820Z,56.93
2023-03-06T03:31:15.709Z,56.86
2023-03-06T03:33:44.096Z,57.19
2023-03-06T03:36:13.755Z,57.01
2023-03-06T03:38:46.040Z,56.95
2023-03-06T03:41:15.763Z,56.74
2023-03-06T03:43:44.314Z,56.73
2023-03-06T03:46:12.662Z,56.72
2023-03-06T03:48:41.054Z,56.70
2023-03-06T03:51:12.441Z,56.60
2023-03-06T03:53:45.172Z,56.55
2023-03-06T03:56:17.759Z,56.50
2023-03-06T03:58:55.655Z,56.42
2023-03-06T04:01:25.247Z,56.50
2023-03-06T04:03:53.596Z,56.68
2023-03-06T04:06:21.928Z,56.64
2023-03-06T04:08:50.244Z,56.56
2023-03-06T04:11:19.958Z,56.54
2023-03-06T04:13:48.281Z,56.52
2023-03-06T04:16:18.208Z,56.54
2023-03-06T04:18:46.787Z,56.61
2023-03-06T04:21:15.128Z,56.58
2023-03-06T04:23:43.506Z,56.51
2023-03-06T04:26:11.864Z,56.46
2023-03-06T04:28:41.617Z,56.40
2023-03-06T04:31:09.931Z,56.46
2023-03-06T04:33:38.307Z,56.45
2023-03-06T04:36:07.825Z,56.45
2023-03-06T04:38:36.825Z,56.43
2023-03-06T04:41:07.350Z,56.42
2023-03-06T04:43:35.830Z,56.45
2023-03-06T04:46:05.762Z,56.45
2023-03-06T04:48:36.402Z,56.54
2023-03-06T04:51:04.920Z,56.58
2023-03-06T04:53:33.345Z,56.58
2023-03-06T04:56:01.605Z,56.56
2023-03-06T04:58:29.931Z,56.47
2023-03-06T05:00:58.196Z,56.51
2023-03-06T05:03:27.980Z,56.42
2023-03-06T05:05:56.232Z,56.39
2023-03-06T05:08:24.900Z,56.40
2023-03-06T05:10:57.167Z,56.32
2023-03-06T05:13:26.195Z,56.30
2023-03-06T05:15:54.775Z,56.30
2023-03-06T05:18:23.225Z,56.35
2023-03-06T05:20:52.852Z,56.20
2023-03-06T05:23:21.111Z,56.19
2023-03-06T05:25:49.337Z,56.15
2023-03-06T05:28:17.621Z,56.04
2023-03-06T05:30:45.894Z,56.07
2023-03-06T05:33:14.290Z,56.05
2023-03-06T05:35:46.858Z,55.94
2023-03-06T05:38:17.570Z,56.03
2023-03-06T05:40:46.583Z,56.10
2023-03-06T05:43:14.864Z,56.07
2023-03-06T05:45:43.229Z,56.10
2023-03-06T05:48:13.175Z,56.34
2023-03-06T05:50:41.726Z,56.33
2023-03-06T05:53:09.968Z,56.50
2023-03-06T05:55:39.625Z,56.51
2023-03-06T05:58:07.888Z,56.58
2023-03-06T06:00:36.064Z,56.66
2023-03-06T06:03:04.303Z,56.74
2023-03-06T06:05:32.575Z,56.79
2023-03-06T06:08:01.146Z,56.87
2023-03-06T06:10:29.524Z,56.78
2023-03-06T06:12:59.421Z,56.85
2023-03-06T06:15:29.041Z,56.87
2023-03-06T06:17:57.613Z,56.85
2023-03-06T06:20:27.551Z,56.86
2023-03-06T06:22:56.080Z,56.97
2023-03-06T06:25:24.304Z,57.10
2023-03-06T06:27:55.266Z,57.20
2023-03-06T06:30:25.470Z,57.19
2023-03-06T06:32:53.838Z,57.18
2023-03-06T06:35:22.121Z,57.30
2023-03-06T06:37:50.840Z,57.31
2023-03-06T06:40:19.606Z,57.34
2023-03-06T06:42:47.822Z,57.22
2023-03-06T06:45:16.177Z,57.33
2023-03-06T06:47:46.251Z,57.35
2023-03-06T06:50:15.025Z,57.39
2023-03-06T06:52:43.328Z,57.44
2023-03-06T06:55:12.271Z,57.49
2023-03-06T06:57:41.831Z,57.35
2023-03-06T07:00:12.582Z,57.30
2023-03-06T07:02:40.817Z,57.37
2023-03-06T07:05:11.353Z,57.22
2023-03-06T07:07:39.811Z,57.22
2023-03-06T07:10:12.459Z,57.20
2023-03-06T07:12:40.824Z,57.20
2023-03-06T07:15:09.978Z,57.37
2023-03-06T07:17:38.248Z,57.40
2023-03-06T07:20:08.916Z,57.44
2023-03-06T07:22:50.352Z,57.58
2023-03-06T07:25:20.496Z,57.72
2023-03-06T07:27:53.247Z,57.64
2023-03-06T07:30:23.357Z,57.77
2023-03-06T07:32:54.289Z,57.65
2023-03-06T07:35:23.142Z,57.67
2023-03-06T07:37:52.971Z,57.73
2023-03-06T07:40:21.982Z,57.84
2023-03-06T07:42:50.194Z,57.90
2023-03-06T07:45:25.676Z,57.91
2023-03-06T07:47:55.191Z,57.78
2023-03-06T07:50:23.551Z,57.58
2023-03-06T07:52:54.200Z,57.61
2023-03-06T07:55:22.541Z,57.42
2023-03-06T07:57:51.748Z,57.72
2023-03-06T08:00:20.887Z,57.59
2023-03-06T08:02:49.649Z,57.54
2023-03-06T08:05:18.702Z,57.74
2023-03-06T08:07:47.030Z,57.84
2023-03-06T08:10:17.633Z,57.74
2023-03-06T08:12:45.951Z,57.43
2023-03-06T08:15:15.187Z,57.71
2023-03-06T08:17:43.477Z,57.37
2023-03-06T08:20:14.435Z,57.62
2023-03-06T08:22:42.791Z,57.61
2023-03-06T08:25:13.390Z,57.71
2023-03-06T08:27:43.421Z,57.68
2023-03-06T08:30:13.449Z,57.64
2023-03-06T08:32:42.301Z,57.40
2023-03-06T08:35:11.134Z,57.31
2023-03-06T08:37:39.449Z,57.45
2023-03-06T08:40:09.132Z,56.99
2023-03-06T08:42:37.478Z,56.69
2023-03-06T08:45:08.744Z,56.26
2023-03-06T08:47:37.345Z,56.87
2023-03-06T08:50:06.222Z,55.97
2023-03-06T08:52:34.452Z,55.61
2023-03-06T08:55:03.733Z,55.61
2023-03-06T08:57:32.145Z,55.63
2023-03-06T09:00:00.462Z,55.84
2023-03-06T09:02:30.242Z,54.68
2023-03-06T09:04:59.528Z,53.88
2023-03-06T09:07:27.991Z,53.52
2023-03-06T09:09:57.835Z,53.94
2023-03-06T09:12:26.685Z,53.36
2023-03-06T09:14:55.458Z,54.32
2023-03-06T09:17:23.920Z,55.40
2023-03-06T09:19:53.671Z,55.65
2023-03-06T09:22:22.018Z,54.12
2023-03-06T09:24:50.806Z,53.91
2023-03-06T09:27:19.398Z,54.10
2023-03-06T09:29:47.724Z,50.66
2023-03-06T09:32:16.171Z,50.82
2023-03-06T09:34:44.619Z,50.16
2023-03-06T09:37:15.729Z,50.26
2023-03-06T09:39:44.659Z,49.05
2023-03-06T09:42:18.361Z,48.61
2023-03-06T09:44:50.526Z,47.48
2023-03-06T09:47:42.187Z,46.57
2023-03-06T09:50:19.833Z,45.77
2023-03-06T09:53:06.189Z,46.66
2023-03-06T09:55:38.164Z,47.79
2023-03-06T09:58:14.680Z,47.99
2023-03-06T10:00:48.074Z,44.62
2023-03-06T10:03:23.545Z,44.74
2023-03-06T10:05:54.652Z,44.82
2023-03-06T10:08:30.410Z,43.13
2023-03-06T10:11:03.863Z,42.72
2023-03-06T10:13:39.541Z,42.68
2023-03-06T10:16:33.217Z,43.93
2023-03-06T10:19:03.384Z,44.70
2023-03-06T10:21:43.548Z,44.42
2023-03-06T10:24:34.210Z,45.31
2023-03-06T10:27:16.765Z,45.61
2023-03-06T10:30:02.214Z,46.35
2023-03-06T10:32:48.272Z,47.18
2023-03-06T10:35:20.400Z,47.00
2023-03-06T10:37:49.660Z,46.92
2023-03-06T10:40:21.974Z,46.52
2023-03-06T10:43:01.565Z,46.81
2023-03-06T10:45:49.490Z,45.23
2023-03-06T10:48:21.495Z,43.61
2023-03-06T10:50:50.422Z,43.06
2023-03-06T10:53:26.542Z,44.45
2023-03-06T10:55:58.498Z,44.83
2023-03-06T10:58:28.598Z,44.21
2023-03-06T11:01:08.682Z,43.27
2023-03-06T11:03:37.720Z,42.76
2023-03-06T11:06:13.207Z,42.59
2023-03-06T11:08:43.386Z,42.14
2023-03-06T11:11:18.566Z,39.62
2023-03-06T11:13:58.878Z,38.91
2023-03-06T11:16:30.533Z,38.62
2023-03-06T11:19:00.661Z,37.99
2023-03-06T11:21:32.034Z,37.37
2023-03-06T11:24:05.659Z,38.27
2023-03-06T11:26:42.503Z,37.27
2023-03-06T11:29:25.963Z,35.15
2023-03-06T11:31:57.100Z,36.05
2023-03-06T11:34:40.018Z,36.15
2023-03-06T11:37:11.946Z,37.08
2023-03-06T11:39:45.236Z,37.93
2023-03-06T11:42:21.644Z,38.26
2023-03-06T11:44:59.101Z,37.66
2023-03-06T11:47:31.571Z,36.55
2023-03-06T11:50:13.822Z,33.75
2023-03-06T11:52:48.023Z,36.15
2023-03-06T11:55:22.040Z,35.74
2023-03-06T11:58:00.964Z,33.29
2023-03-06T12:00:48.249Z,33.01
2023-03-06T12:03:47.371Z,34.29
2023-03-06T12:06:25.773Z,33.83
2023-03-06T12:09:04.994Z,33.99
2023-03-06T12:11:41.265Z,32.44
2023-03-06T12:14:23.950Z,31.55
2023-03-06T12:17:08.305Z,31.12
2023-03-06T12:20:11.199Z,32.06
2023-03-06T12:22:57.694Z,31.14
2023-03-06T12:25:36.603Z,31.88
2023-03-06T12:28:29.552Z,29.37
2023-03-06T12:31:23.900Z,30.13
2023-03-06T12:34:02.701Z,31.12
2023-03-06T12:36:59.937Z,28.08
2023-03-06T12:39:43.497Z,29.91
2023-03-06T12:42:32.628Z,29.70
2023-03-06T12:45:18.647Z,29.24
2023-03-06T12:47:51.534Z,28.81
2023-03-06T12:50:25.629Z,29.39
2023-03-06T12:52:56.175Z,29.35
2023-03-06T12:55:26.230Z,30.04
2023-03-06T12:57:54.870Z,30.67
2023-03-06T13:01:03.589Z,31.15
2023-03-06T13:03:45.903Z,31.21
2023-03-06T13:06:30.977Z,30.90
2023-03-06T13:09:12.328Z,30.01
2023-03-06T13:12:14.216Z,30.24
2023-03-06T13:15:00.147Z,30.37
2023-03-06T13:17:35.555Z,30.58
2023-03-06T13:20:43.725Z,29.68
2023-03-06T13:23:51.894Z,28.89
2023-03-06T13:26:51.743Z,30.48
2023-03-06T13:30:02.679Z,30.77
2023-03-06T13:32:36.022Z,31.16
2023-03-06T13:35:49.200Z,30.81
2023-03-06T13:38:53.506Z,30.38
2023-03-06T13:41:44.257Z,28.49
2023-03-06T13:44:46.100Z,29.00
2023-03-06T13:48:05.794Z,28.19
2023-03-06T13:50:36.568Z,28.19
2023-03-06T13:53:30.838Z,30.26
2023-03-06T13:56:22.487Z,29.93
2023-03-06T13:59:15.065Z,31.10
2023-03-06T14:01:57.734Z,30.90
2023-03-06T14:04:39.372Z,29.74
2023-03-06T14:07:29.142Z,30.36
2023-03-06T14:10:17.726Z,30.54
2023-03-06T14:13:02.007Z,31.05
2023-03-06T14:15:38.085Z,31.32
2023-03-06T14:18:08.177Z,30.93
2023-03-06T14:20:43.451Z,31.28
2023-03-06T14:23:25.991Z,31.99
2023-03-06T14:26:01.028Z,31.77
2023-03-06T14:28:32.615Z,32.28
2023-03-06T14:31:03.187Z,33.09
2023-03-06T14:33:35.859Z,32.39
2023-03-06T14:36:10.091Z,31.92
2023-03-06T14:38:46.105Z,32.31
2023-03-06T14:41:14.487Z,33.30
2023-03-06T14:43:44.323Z,33.15
2023-03-06T14:46:21.068Z,33.67
2023-03-06T14:48:50.592Z,33.82
2023-03-06T14:51:21.916Z,34.15
2023-03-06T14:53:51.703Z,33.96
2023-03-06T14:56:21.615Z,34.26
2023-03-06T14:58:55.738Z,33.96
2023-03-06T15:01:31.438Z,33.84
2023-03-06T15:04:01.406Z,34.23
2023-03-06T15:06:36.058Z,34.11
2023-03-06T15:09:08.680Z,34.31
2023-03-06T15:11:57.214Z,34.38
2023-03-06T15:14:33.338Z,34.29
2023-03-06T15:17:23.773Z,34.53
2023-03-06T15:19:54.600Z,35.08
2023-03-06T15:22:31.958Z,34.93
2023-03-06T15:25:26.792Z,35.37
2023-03-06T15:27:56.909Z,35.37
2023-03-06T15:30:29.878Z,35.33
2023-03-06T15:33:21.230Z,35.54
2023-03-06T15:35:55.095Z,35.89
2023-03-06T15:38:32.993Z,35.55
2023-03-06T15:41:02.718Z,35.88
2023-03-06T15:43:37.878Z,35.88
2023-03-06T15:46:08.936Z,36.40
2023-03-06T15:48:37.453Z,36.63
2023-03-06T15:51:06.257Z,36.46
2023-03-06T15:53:34.621Z,36.38
2023-03-06T15:56:03.434Z,36.39
2023-03-06T15:58:34.379Z,36.29
2023-03-06T16:01:03.871Z,36.19
2023-03-06T16:03:33.996Z,36.34
2023-03-06T16:06:02.445Z,36.27
2023-03-06T16:08:30.777Z,36.11
2023-03-06T16:10:59.477Z,36.64
2023-03-06T16:13:29.314Z,36.66
2023-03-06T16:15:57.646Z,36.75
2023-03-06T16:18:25.945Z,36.79
2023-03-06T16:20:55.747Z,37.14
2023-03-06T16:23:24.030Z,37.21
2023-03-06T16:25:52.554Z,37.07
2023-03-06T16:28:21.054Z,37.54
2023-03-06T16:30:49.444Z,37.58
2023-03-06T16:33:17.751Z,37.54
2023-03-06T16:35:47.308Z,37.66
2023-03-06T16:38:17.256Z,38.05
2023-03-06T16:40:45.638Z,37.86
2023-03-06T16:43:16.234Z,37.94
2023-03-06T16:45:44.952Z,38.13
2023-03-06T16:48:17.918Z,38.23
2023-03-06T16:50:46.346Z,38.49
2023-03-06T16:53:16.512Z,38.40
2023-03-06T16:55:44.809Z,38.57
2023-03-06T16:58:13.262Z,38.72
2023-03-06T17:00:41.638Z,38.82
2023-03-06T17:03:10.027Z,38.72
2023-03-06T17:05:39.039Z,39.02
2023-03-06T17:08:07.711Z,38.84
2023-03-06T17:10:40.226Z,39.07
2023-03-06T17:13:08.904Z,39.09
2023-03-06T17:15:37.327Z,38.91
2023-03-06T17:18:06.203Z,38.96
2023-03-06T17:20:34.618Z,38.95
2023-03-06T17:23:03.008Z,39.10
2023-03-06T17:25:31.548Z,39.14
2023-03-06T17:28:01.568Z,39.16
2023-03-06T17:30:29.867Z,39.23
2023-03-06T17:32:58.386Z,39.27
2023-03-06T17:35:26.753Z,39.23
2023-03-06T17:37:55.068Z,39.02
2023-03-06T17:40:23.362Z,39.16
2023-03-06T17:42:51.935Z,39.25
2023-03-06T17:45:21.680Z,39.19
2023-03-06T17:47:53.483Z,39.04
2023-03-06T17:50:22.130Z,38.99
2023-03-06T17:52:50.448Z,38.88
2023-03-06T17:55:18.817Z,38.91
2023-03-06T17:57:47.056Z,38.98
2023-03-06T18:00:17.011Z,39.13
2023-03-06T18:02:46.991Z,39.19
2023-03-06T18:05:15.446Z,39.10
2023-03-06T18:07:44.022Z,39.22
2023-03-06T18:10:12.571Z,39.40
2023-03-06T18:12:41.017Z,39.22
2023-03-06T18:15:10.475Z,39.49
2023-03-06T18:17:38.802Z,39.47
2023-03-06T18:20:10.106Z,39.42
2023-03-06T18:22:38.472Z,40.13
2023-03-06T18:25:07.511Z,41.06
2023-03-06T18:27:36.532Z,42.45
2023-03-06T18:30:05.973Z,44.21
2023-03-06T18:32:34.317Z,44.63
2023-03-06T18:35:02.583Z,45.92
2023-03-06T18:37:32.315Z,47.41
2023-03-06T18:40:00.744Z,47.99
2023-03-06T18:42:29.151Z,48.78
2023-03-06T18:44:57.389Z,49.98
2023-03-06T18:47:25.912Z,50.83
2023-03-06T18:49:54.168Z,51.69
2023-03-06T18:52:22.633Z,52.14
2023-03-06T18:54:53.591Z,53.98
2023-03-06T18:57:22.149Z,53.71
2023-03-06T18:59:50.809Z,53.85
2023-03-06T19:02:19.399Z,53.83
2023-03-06T19:04:47.928Z,54.16
2023-03-06T19:07:16.250Z,54.69
2023-03-06T19:09:44.552Z,54.82
2023-03-06T19:12:14.224Z,54.66
2023-03-06T19:14:42.666Z,55.10
2023-03-06T19:17:11.415Z,55.95
2023-03-06T19:19:40.022Z,56.07
2023-03-06T19:22:08.370Z,56.20
2023-03-06T19:24:36.773Z,55.82
2023-03-06T19:27:05.278Z,56.97
2023-03-06T19:29:34.932Z,56.77
2023-03-06T19:32:03.360Z,56.77
2023-03-06T19:34:31.919Z,57.28
2023-03-06T19:37:00.249Z,56.97
2023-03-06T19:39:28.675Z,56.59
2023-03-06T19:41:56.943Z,57.46
2023-03-06T19:44:25.249Z,57.61
2023-03-06T19:46:54.950Z,57.08
2023-03-06T19:49:23.203Z,57.51
2023-03-06T19:51:51.530Z,57.26
2023-03-06T19:54:23.421Z,58.00
2023-03-06T19:56:51.920Z,57.93
2023-03-06T19:59:20.518Z,58.35
2023-03-06T20:01:48.840Z,58.53
2023-03-06T20:04:18.581Z,58.79
2023-03-06T20:06:48.242Z,58.58
2023-03-06T20:09:16.572Z,58.22
2023-03-06T20:11:44.892Z,58.06
2023-03-06T20:14:14.547Z,58.25
2023-03-06T20:16:42.832Z,58.82
2023-03-06T20:19:12.563Z,58.77
2023-03-06T20:21:42.204Z,59.16
2023-03-06T20:24:16.746Z,58.87
2023-03-06T20:26:45.952Z,59.10
2023-03-06T20:29:14.661Z,58.83
2023-03-06T20:31:43.169Z,58.83
2023-03-06T20:34:12.012Z,59.33
2023-03-06T20:36:41.966Z,59.22
2023-03-06T20:39:13.725Z,59.42
2023-03-06T20:41:42.065Z,59.46
2023-03-06T20:44:13.985Z,59.97
2023-03-06T20:46:42.307Z,59.69
2023-03-06T20:49:12.037Z,59.89
2023-03-06T20:51:42.576Z,59.68
2023-03-06T20:54:13.621Z,59.91
2023-03-06T20:56:46.017Z,59.73
2023-03-06T20:59:15.015Z,60.20
2023-03-06T21:01:44.959Z,60.29
2023-03-06T21:04:14.914Z,60.14
2023-03-06T21:06:47.025Z,60.46
2023-03-06T21:09:16.850Z,60.30
2023-03-06T21:11:45.934Z,60.06
2023-03-06T21:14:14.466Z,60.22
2023-03-06T21:16:43.049Z,60.05
2023-03-06T21:19:11.528Z,59.85
2023-03-06T21:21:39.975Z,60.18
2023-03-06T21:24:10.280Z,60.14
2023-03-06T21:26:38.552Z,59.78
2023-03-06T21:29:07.827Z,59.87
2023-03-06T21:31:36.185Z,59.82
2023-03-06T21:34:06.388Z,59.83
2023-03-06T21:36:35.574Z,60.18
2023-03-06T21:39:06.337Z,60.32
2023-03-06T21:41:38.335Z,60.27
2023-03-06T21:44:08.151Z,60.15
2023-03-06T21:46:36.905Z,60.07
2023-03-06T21:49:06.361Z,60.34
2023-03-06T21:51:35.080Z,60.54
2023-03-06T21:54:03.926Z,60.80
2023-03-06T21:56:33.652Z,60.18
2023-03-06T21:59:03.403Z,60.48
2023-03-06T22:01:31.930Z,60.73
2023-03-06T22:04:01.162Z,60.73
2023-03-06T22:06:31.287Z,61.04
2023-03-06T22:09:00.864Z,60.70
2023-03-06T22:11:36.901Z,60.45
2023-03-06T22:14:07.537Z,60.53
2023-03-06T22:16:35.897Z,60.41
2023-03-06T22:19:04.376Z,60.32
2023-03-06T22:21:32.725Z,60.23
2023-03-06T22:24:01.990Z,60.52
2023-03-06T22:26:31.372Z,60.88
2023-03-06T22:28:59.760Z,60.54
2023-03-06T22:31:30.391Z,60.64
2023-03-06T22:34:00.507Z,60.76
2023-03-06T22:36:31.413Z,60.62
2023-03-06T22:39:01.412Z,60.47
2023-03-06T22:41:30.057Z,60.47
2023-03-06T22:43:58.565Z,60.35
2023-03-06T22:46:27.597Z,59.96
2023-03-06T22:48:58.971Z,60.02
2023-03-06T22:51:28.770Z,59.99
2023-03-06T22:53:57.077Z,60.31
2023-03-06T22:56:26.871Z,60.27
2023-03-06T22:58:55.161Z,60.01
2023-03-06T23:01:25.898Z,60.05
2023-03-06T23:03:56.049Z,60.11
2023-03-06T23:06:27.212Z,60.19
2023-03-06T23:08:57.685Z,60.22
2023-03-06T23:11:27.871Z,60.24
2023-03-06T23:14:15.758Z,60.43
2023-03-06T23:17:02.216Z,60.35
2023-03-06T23:19:50.603Z,60.65
2023-03-06T23:22:38.740Z,60.31
2023-03-06T23:25:25.293Z,60.24
2023-03-06T23:27:53.609Z,60.07
2023-03-06T23:30:21.899Z,60.16
2023-03-06T23:32:50.158Z,59.93
2023-03-06T23:35:18.643Z,60.36
2023-03-06T23:37:48.288Z,60.15
2023-03-06T23:40:17.306Z,60.44
2023-03-06T23:42:45.688Z,60.23
2023-03-06T23:45:13.911Z,60.56
2023-03-06T23:47:42.233Z,60.83
2023-03-06T23:50:11.666Z,60.71
2023-03-06T23:52:40.085Z,60.46
2023-03-06T23:55:10.426Z,60.37
2023-03-06T23:57:38.747Z,60.67
